createdAt,value
2023-03-19T00:00:43.651Z,12.98
2023-03-19T00:03:16.218Z,13.93
2023-03-19T00:05:53.472Z,13.30
2023-03-19T00:08:26.084Z,13.30
2023-03-19T00:10:58.457Z,11.93
2023-03-19T00:13:30.758Z,13.73
2023-03-19T00:16:03.320Z,11.85
2023-03-19T00:18:35.549Z,11.98
2023-03-19T00:21:08.531Z,12.63
2023-03-19T00:23:40.672Z,13.40
2023-03-19T00:26:12.936Z,11.60
2023-03-19T00:28:46.137Z,11.07
2023-03-19T00:31:18.619Z,11.98
2023-03-19T00:33:51.853Z,12.98
2023-03-19T00:36:25.928Z,11.10
2023-03-19T00:38:58.372Z,11.80
2023-03-19T00:41:30.862Z,10.93
2023-03-19T00:44:04.220Z,10.07
2023-03-19T00:46:36.844Z,10.85
2023-03-19T00:49:09.921Z,11.40
2023-03-19T00:51:44.129Z,10.55
2023-03-19T00:54:16.191Z,9.82
2023-03-19T00:56:48.512Z,10.35
2023-03-19T00:59:20.699Z,9.20
2023-03-19T01:01:52.887Z,9.90
2023-03-19T01:04:25.195Z,9.90
2023-03-19T01:09:31.310Z,8.98
2023-03-19T01:12:04.920Z,9.02
2023-03-19T01:14:37.837Z,9.15
2023-03-19T01:17:10.081Z,9.40
2023-03-19T01:19:42.144Z,8.90
2023-03-19T01:22:16.350Z,9.07
2023-03-19T01:24:53.067Z,8.82
2023-03-19T01:27:25.681Z,9.15
2023-03-19T01:29:57.862Z,9.68
2023-03-19T01:33:08.460Z,8.55
2023-03-19T01:35:59.631Z,9.38
2023-03-19T01:38:36.220Z,9.10
2023-03-19T01:41:11.125Z,9.10
2023-03-19T01:43:43.494Z,10.05
2023-03-19T01:46:39.574Z,8.90
2023-03-19T01:49:31.237Z,9.10
2023-03-19T01:52:25.493Z,7.90
2023-03-19T01:55:17.924Z,8.77
2023-03-19T01:57:55.361Z,9.07
2023-03-19T02:03:11.892Z,7.75
2023-03-19T02:06:07.765Z,8.20
2023-03-19T02:08:41.721Z,8.23
2023-03-19T02:11:14.314Z,7.93
2023-03-19T02:13:47.545Z,8.57
2023-03-19T02:16:19.817Z,9.35
2023-03-19T02:18:53.498Z,7.63
2023-03-19T02:21:25.829Z,8.48
2023-03-19T02:24:21.384Z,7.80
2023-03-19T02:27:04.038Z,8.23
2023-03-19T02:29:37.903Z,8.70
2023-03-19T02:32:10.144Z,7.63
2023-03-19T02:34:44.163Z,8.15
2023-03-19T02:40:14.262Z,7.85
2023-03-19T02:42:46.341Z,7.68
2023-03-19T02:45:19.087Z,7.80
2023-03-19T02:47:51.247Z,7.80
2023-03-19T02:50:23.382Z,8.40
2023-03-19T02:52:55.859Z,7.53
2023-03-19T02:55:28.029Z,7.28
2023-03-19T02:58:00.129Z,7.35
2023-03-19T03:00:32.512Z,8.40
2023-03-19T03:03:06.836Z,7.93
2023-03-19T03:05:39.225Z,7.75
2023-03-19T03:08:12.100Z,8.02
2023-03-19T03:10:44.320Z,8.15
2023-03-19T03:13:17.501Z,7.30
2023-03-19T03:15:49.583Z,7.88
2023-03-19T03:18:22.523Z,7.68
2023-03-19T03:20:54.945Z,8.57
2023-03-19T03:23:27.819Z,7.50
2023-03-19T03:25:59.814Z,7.60
2023-03-19T03:28:31.860Z,7.25
2023-03-19T03:31:04.018Z,7.25
2023-03-19T03:33:37.270Z,7.78
2023-03-19T03:36:09.441Z,7.75
2023-03-19T03:38:41.761Z,7.75
2023-03-19T03:41:13.810Z,6.88
2023-03-19T03:43:46.003Z,7.95
2023-03-19T03:46:18.692Z,8.52
2023-03-19T03:48:55.192Z,8.35
2023-03-19T03:51:27.769Z,8.20
2023-03-19T03:53:59.898Z,8.02
2023-03-19T03:56:33.362Z,7.85
2023-03-19T04:01:37.697Z,8.10
2023-03-19T04:04:10.754Z,7.70
2023-03-19T04:06:43.109Z,7.63
2023-03-19T04:09:24.096Z,7.93
2023-03-19T04:11:56.545Z,7.80
2023-03-19T04:14:28.654Z,7.53
2023-03-19T04:17:01.714Z,8.07
2023-03-19T04:19:34.125Z,6.78
2023-03-19T04:22:08.622Z,8.00
2023-03-19T04:24:41.647Z,7.72
2023-03-19T04:27:13.892Z,8.43
2023-03-19T04:29:46.464Z,7.30
2023-03-19T04:32:19.844Z,7.13
2023-03-19T04:34:52.502Z,8.13
2023-03-19T04:37:24.714Z,7.88
2023-03-19T04:39:57.558Z,7.93
2023-03-19T04:42:29.891Z,7.30
2023-03-19T04:45:19.764Z,7.85
2023-03-19T04:47:51.978Z,7.88
2023-03-19T04:50:25.668Z,8.40
2023-03-19T04:52:58.970Z,8.52
2023-03-19T04:55:31.527Z,7.90
2023-03-19T04:58:11.471Z,8.55
2023-03-19T05:00:47.022Z,9.20
2023-03-19T05:03:23.617Z,8.55
2023-03-19T05:05:55.893Z,8.07
2023-03-19T05:08:29.053Z,8.60
2023-03-19T05:11:01.630Z,10.18
2023-03-19T05:13:39.629Z,9.02
2023-03-19T05:16:13.414Z,8.93
2023-03-19T05:18:46.284Z,10.93
2023-03-19T05:21:18.616Z,11.10
2023-03-19T05:23:52.858Z,10.63
2023-03-19T05:26:25.906Z,10.95
2023-03-19T05:29:18.312Z,11.85
2023-03-19T05:32:03.328Z,10.70
2023-03-19T05:34:37.591Z,10.10
2023-03-19T05:37:09.819Z,10.50
2023-03-19T05:39:42.940Z,9.07
2023-03-19T05:42:16.605Z,9.40
2023-03-19T05:44:49.310Z,9.60
2023-03-19T05:47:26.050Z,8.63
2023-03-19T05:50:01.124Z,8.60
2023-03-19T05:52:33.813Z,7.77
2023-03-19T05:55:07.061Z,8.95
2023-03-19T05:57:44.272Z,7.93
2023-03-19T06:00:22.744Z,7.47
2023-03-19T06:02:55.857Z,7.47
2023-03-19T06:05:43.992Z,8.40
2023-03-19T06:08:31.475Z,8.57
2023-03-19T06:11:22.912Z,8.55
2023-03-19T06:14:07.318Z,8.40
2023-03-19T06:16:44.069Z,9.68
2023-03-19T06:19:16.397Z,8.75
2023-03-19T06:21:48.566Z,8.77
2023-03-19T06:26:54.156Z,9.52
2023-03-19T06:29:27.136Z,9.55
2023-03-19T06:32:05.896Z,9.13
2023-03-19T06:34:47.260Z,9.35
2023-03-19T06:37:19.878Z,10.20
2023-03-19T06:39:54.707Z,9.98
2023-03-19T06:42:27.147Z,9.60
2023-03-19T06:44:59.329Z,10.27
2023-03-19T06:47:31.682Z,11.00
2023-03-19T06:50:04.704Z,11.77
2023-03-19T06:52:36.743Z,11.20
2023-03-19T06:55:10.058Z,10.15
2023-03-19T06:57:42.105Z,10.93
2023-03-19T07:00:14.958Z,11.50
2023-03-19T07:02:46.990Z,11.17
2023-03-19T07:05:19.044Z,11.13
2023-03-19T07:07:51.763Z,11.35
2023-03-19T07:10:23.797Z,9.73
2023-03-19T07:12:56.085Z,10.65
2023-03-19T07:15:28.194Z,10.85
2023-03-19T07:18:00.332Z,11.07
2023-03-19T07:20:32.953Z,10.80
2023-03-19T07:23:05.073Z,10.30
2023-03-19T07:25:37.239Z,10.95
2023-03-19T07:28:09.444Z,10.85
2023-03-19T07:30:41.584Z,11.63
2023-03-19T07:33:14.069Z,10.07
2023-03-19T07:35:46.632Z,9.85
2023-03-19T07:38:18.989Z,9.82
2023-03-19T07:41:01.391Z,9.95
2023-03-19T07:43:34.394Z,9.52
2023-03-19T07:46:06.512Z,9.43
2023-03-19T07:48:38.631Z,9.05
2023-03-19T07:51:11.138Z,9.27
2023-03-19T07:53:43.465Z,8.73
2023-03-19T07:56:15.803Z,9.15
2023-03-19T07:58:47.841Z,8.30
2023-03-19T08:01:20.691Z,8.60
2023-03-19T08:03:52.922Z,7.83
2023-03-19T08:06:25.438Z,8.43
2023-03-19T08:08:57.502Z,7.57
2023-03-19T08:11:30.559Z,9.05
2023-03-19T08:14:03.024Z,9.23
2023-03-19T08:16:35.109Z,7.88
2023-03-19T08:19:07.265Z,7.25
2023-03-19T08:21:39.707Z,7.07
2023-03-19T08:24:11.850Z,6.72
2023-03-19T08:26:44.277Z,7.05
2023-03-19T08:29:18.802Z,7.25
2023-03-19T08:31:51.391Z,6.70
2023-03-19T08:34:23.797Z,6.75
2023-03-19T08:36:55.908Z,7.45
2023-03-19T08:39:27.955Z,7.70
2023-03-19T08:41:59.987Z,6.93
2023-03-19T08:44:32.468Z,6.68
2023-03-19T08:47:04.843Z,6.78
2023-03-19T08:49:37.112Z,6.50
2023-03-19T08:52:09.567Z,6.75
2023-03-19T08:54:41.728Z,6.53
2023-03-19T08:57:13.989Z,6.47
2023-03-19T08:59:46.161Z,6.55
2023-03-19T09:02:18.582Z,6.75
2023-03-19T09:04:51.365Z,6.88
2023-03-19T09:07:24.139Z,6.70
2023-03-19T09:09:56.296Z,5.50
2023-03-19T09:12:28.450Z,6.22
2023-03-19T09:15:00.497Z,6.28
2023-03-19T09:17:32.573Z,7.32
2023-03-19T09:20:08.917Z,6.75
2023-03-19T09:22:41.232Z,6.60
2023-03-19T09:25:13.387Z,5.40
2023-03-19T09:27:45.718Z,5.53
2023-03-19T09:30:18.053Z,5.80
2023-03-19T09:32:50.078Z,5.30
2023-03-19T09:35:23.232Z,6.00
2023-03-19T09:37:55.249Z,6.18
2023-03-19T09:40:31.783Z,6.57
2023-03-19T09:43:04.061Z,5.40
2023-03-19T09:45:36.397Z,5.03
2023-03-19T09:48:29.216Z,5.50
2023-03-19T09:51:05.974Z,4.45
2023-03-19T09:54:16.033Z,4.45
2023-03-19T09:56:49.211Z,4.88
2023-03-19T09:59:23.835Z,7.47
2023-03-19T10:02:16.291Z,6.47
2023-03-19T10:05:36.616Z,5.07
2023-03-19T10:08:44.329Z,4.55
2023-03-19T10:11:29.699Z,5.57
2023-03-19T10:14:38.989Z,4.50
2023-03-19T10:17:21.264Z,4.35
2023-03-19T10:20:10.848Z,4.10
2023-03-19T10:22:57.693Z,5.30
2023-03-19T10:25:33.948Z,5.07
2023-03-19T10:28:18.912Z,6.53
2023-03-19T10:31:11.813Z,5.22
2023-03-19T10:33:52.753Z,6.00
2023-03-19T10:36:31.447Z,6.72
2023-03-19T10:39:07.021Z,5.43
2023-03-19T10:42:08.589Z,6.07
2023-03-19T10:44:51.408Z,5.13
2023-03-19T10:47:26.832Z,5.38
2023-03-19T10:49:58.944Z,5.32
2023-03-19T10:52:34.622Z,4.82
2023-03-19T10:55:18.306Z,5.15
2023-03-19T10:57:52.288Z,4.65
2023-03-19T11:00:29.053Z,5.05
2023-03-19T11:03:04.953Z,4.70
2023-03-19T11:05:37.989Z,4.30
2023-03-19T11:08:34.758Z,4.10
2023-03-19T11:11:22.732Z,3.95
2023-03-19T11:13:54.918Z,3.83
2023-03-19T11:16:27.333Z,5.78
2023-03-19T11:19:00.163Z,4.97
2023-03-19T11:21:33.120Z,4.35
2023-03-19T11:24:12.881Z,3.87
2023-03-19T11:26:55.955Z,4.22
2023-03-19T11:29:29.268Z,4.05
2023-03-19T11:32:22.308Z,4.07
2023-03-19T11:35:01.621Z,4.40
2023-03-19T11:37:52.689Z,4.20
2023-03-19T11:40:37.772Z,4.18
2023-03-19T11:43:22.046Z,3.53
2023-03-19T11:46:17.074Z,3.80
2023-03-19T11:49:08.269Z,3.95
2023-03-19T11:51:50.308Z,3.72
2023-03-19T11:54:40.808Z,3.50
2023-03-19T11:57:37.067Z,3.25
2023-03-19T12:00:10.864Z,3.92
2023-03-19T12:02:57.549Z,4.10
2023-03-19T12:05:34.648Z,3.40
2023-03-19T12:08:22.356Z,3.47
2023-03-19T12:11:25.499Z,3.25
2023-03-19T12:14:22.723Z,3.17
2023-03-19T12:17:04.428Z,3.17
2023-03-19T12:19:53.029Z,4.55
2023-03-19T12:22:47.084Z,4.07
2023-03-19T12:25:53.205Z,3.90
2023-03-19T12:28:57.394Z,4.07
2023-03-19T12:32:09.828Z,3.63
2023-03-19T12:34:59.069Z,3.60
2023-03-19T12:37:47.503Z,3.97
2023-03-19T12:40:41.847Z,3.80
2023-03-19T12:43:37.138Z,4.00
2023-03-19T12:46:19.167Z,3.63
2023-03-19T12:49:21.207Z,3.72
2023-03-19T12:51:59.822Z,4.30
2023-03-19T12:54:38.657Z,3.30
2023-03-19T12:57:37.479Z,5.63
2023-03-19T13:00:09.853Z,3.45
2023-03-19T13:02:44.885Z,3.10
2023-03-19T13:05:39.319Z,4.15
2023-03-19T13:08:43.422Z,3.63
2023-03-19T13:11:25.676Z,2.92
2023-03-19T13:14:14.782Z,3.10
2023-03-19T13:16:57.845Z,2.95
2023-03-19T13:19:51.234Z,3.20
2023-03-19T13:22:33.316Z,3.50
2023-03-19T13:25:14.856Z,3.58
2023-03-19T13:27:56.776Z,3.35
2023-03-19T13:30:30.026Z,3.10
2023-03-19T13:33:21.185Z,6.00
2023-03-19T13:35:55.800Z,3.45
2023-03-19T13:38:37.484Z,3.88
2023-03-19T13:41:44.593Z,3.17
2023-03-19T13:44:22.974Z,3.60
2023-03-19T13:46:55.517Z,3.20
2023-03-19T13:49:29.306Z,3.00
2023-03-19T13:52:01.638Z,2.97
2023-03-19T13:54:35.779Z,3.28
2023-03-19T13:57:15.362Z,3.00
2023-03-19T13:59:50.820Z,2.53
2023-03-19T14:02:23.068Z,3.35
2023-03-19T14:05:02.714Z,2.70
2023-03-19T14:07:38.216Z,2.92
2023-03-19T14:10:29.439Z,2.70
2023-03-19T14:13:17.341Z,2.45
2023-03-19T14:15:52.227Z,2.70
2023-03-19T14:18:25.948Z,3.72
2023-03-19T14:21:07.154Z,3.28
2023-03-19T14:23:52.706Z,3.72
2023-03-19T14:26:29.478Z,5.20
2023-03-19T14:29:14.210Z,3.45
2023-03-19T14:31:50.492Z,3.17
2023-03-19T14:34:41.928Z,2.88
2023-03-19T14:37:29.472Z,3.00
2023-03-19T14:40:20.496Z,16.77
2023-03-19T14:43:11.509Z,3.03
2023-03-19T14:45:54.277Z,3.13
2023-03-19T14:48:58.396Z,4.18
2023-03-19T14:51:45.445Z,3.30
2023-03-19T14:54:42.675Z,3.08
2023-03-19T14:57:34.910Z,2.63
2023-03-19T15:00:13.205Z,2.88
2023-03-19T15:02:52.888Z,2.70
2023-03-19T15:05:28.061Z,2.95
2023-03-19T15:08:04.637Z,3.10
2023-03-19T15:11:02.646Z,3.15
2023-03-19T15:13:58.404Z,2.83
2023-03-19T15:16:36.293Z,3.22
2023-03-19T15:19:10.524Z,2.95
2023-03-19T15:21:43.279Z,3.67
2023-03-19T15:24:17.313Z,3.88
2023-03-19T15:26:49.643Z,3.60
2023-03-19T15:29:33.060Z,3.47
2023-03-19T15:32:09.919Z,3.15
2023-03-19T15:34:42.940Z,3.45
2023-03-19T15:37:16.218Z,3.33
2023-03-19T15:39:52.435Z,3.67
2023-03-19T15:42:26.571Z,3.08
2023-03-19T15:45:09.145Z,3.60
2023-03-19T15:47:48.979Z,3.50
2023-03-19T15:50:25.817Z,3.28
2023-03-19T15:53:04.275Z,3.08
2023-03-19T15:55:37.595Z,3.50
2023-03-19T15:58:15.646Z,3.08
2023-03-19T16:00:51.930Z,3.15
2023-03-19T16:03:34.171Z,3.35
2023-03-19T16:06:12.811Z,3.25
2023-03-19T16:08:54.180Z,3.42
2023-03-19T16:11:41.493Z,3.20
2023-03-19T16:14:39.762Z,3.70
2023-03-19T16:17:16.966Z,3.30
2023-03-19T16:19:56.076Z,3.70
2023-03-19T16:22:32.855Z,2.63
2023-03-19T16:25:15.928Z,3.00
2023-03-19T16:27:48.317Z,3.50
2023-03-19T16:30:26.179Z,3.10
2023-03-19T16:33:00.627Z,2.42
2023-03-19T16:35:34.580Z,3.05
2023-03-19T16:38:23.151Z,3.25
2023-03-19T16:41:18.760Z,2.95
2023-03-19T16:43:54.303Z,2.92
2023-03-19T16:46:26.566Z,3.20
2023-03-19T16:48:58.752Z,3.15
2023-03-19T16:51:30.885Z,3.08
2023-03-19T16:54:03.803Z,3.17
2023-03-19T16:56:36.561Z,3.20
2023-03-19T16:59:19.903Z,3.22
2023-03-19T17:01:51.932Z,2.78
2023-03-19T17:04:24.341Z,3.40
2023-03-19T17:06:56.480Z,3.88
2023-03-19T17:09:28.544Z,3.38
2023-03-19T17:12:02.086Z,3.70
2023-03-19T17:14:35.704Z,3.42
2023-03-19T17:17:18.544Z,3.35
2023-03-19T17:19:51.607Z,3.63
2023-03-19T17:22:27.702Z,3.30
2023-03-19T17:25:00.096Z,3.28
2023-03-19T17:27:34.643Z,3.60
2023-03-19T17:30:08.123Z,3.47
2023-03-19T17:32:43.995Z,3.67
2023-03-19T17:35:18.945Z,3.10
2023-03-19T17:37:51.588Z,3.70
2023-03-19T17:40:28.184Z,3.92
2023-03-19T17:43:01.399Z,4.88
2023-03-19T17:45:33.715Z,4.82
2023-03-19T17:48:06.501Z,5.28
2023-03-19T17:50:38.610Z,6.80
2023-03-19T17:53:13.375Z,6.78
2023-03-19T17:55:46.844Z,6.75
2023-03-19T18:00:53.613Z,6.65
2023-03-19T18:03:28.374Z,7.40
2023-03-19T18:06:05.652Z,6.25
2023-03-19T18:08:38.241Z,6.00
2023-03-19T18:11:10.968Z,6.40
2023-03-19T18:13:43.625Z,6.93
2023-03-19T18:16:18.966Z,6.70
2023-03-19T18:18:52.778Z,6.32
2023-03-19T18:21:27.471Z,6.80
2023-03-19T18:26:32.439Z,6.18
2023-03-19T18:29:04.752Z,6.03
2023-03-19T18:31:37.398Z,5.90
2023-03-19T18:34:14.425Z,6.03
2023-03-19T18:36:46.654Z,5.78
2023-03-19T18:39:19.249Z,5.95
2023-03-19T18:41:51.374Z,6.30
2023-03-19T18:44:24.353Z,6.43
2023-03-19T18:46:56.555Z,6.32
2023-03-19T18:49:28.782Z,5.75
2023-03-19T18:52:03.657Z,5.65
2023-03-19T18:54:36.241Z,5.93
2023-03-19T18:57:13.567Z,5.60
2023-03-19T18:59:46.885Z,5.30
2023-03-19T19:02:37.907Z,5.13
2023-03-19T19:05:27.842Z,5.40
2023-03-19T19:08:01.905Z,6.07
2023-03-19T19:10:36.730Z,6.50
2023-03-19T19:13:19.594Z,6.82
2023-03-19T19:15:53.349Z,6.35
2023-03-19T19:18:30.725Z,7.10
2023-03-19T19:21:03.028Z,7.47
2023-03-19T19:23:35.412Z,7.80
2023-03-19T19:26:11.126Z,7.80
2023-03-19T19:28:43.381Z,8.13
2023-03-19T19:31:26.855Z,9.32
2023-03-19T19:34:00.297Z,10.05
2023-03-19T19:36:33.382Z,10.23
2023-03-19T19:39:05.633Z,10.07
2023-03-19T19:41:39.466Z,11.00
2023-03-19T19:44:19.411Z,12.15
2023-03-19T19:46:54.943Z,14.80
2023-03-19T19:49:28.609Z,11.95
2023-03-19T19:52:02.577Z,13.07
2023-03-19T19:54:34.894Z,11.98
2023-03-19T19:57:25.125Z,12.30
2023-03-19T19:59:57.467Z,11.93
2023-03-19T20:02:29.952Z,11.60
2023-03-19T20:05:03.898Z,11.60
2023-03-19T20:07:36.161Z,12.73
2023-03-19T20:10:08.903Z,11.98
2023-03-19T20:12:44.693Z,14.88
2023-03-19T20:15:23.703Z,14.35
2023-03-19T20:17:56.635Z,22.20
2023-03-19T20:20:33.334Z,17.40
2023-03-19T20:23:08.303Z,16.67
2023-03-19T20:25:44.503Z,14.48
2023-03-19T20:28:27.624Z,13.80
2023-03-19T20:31:01.783Z,13.32
2023-03-19T20:33:35.023Z,12.32
2023-03-19T20:36:07.448Z,13.30
2023-03-19T20:38:39.636Z,11.23
2023-03-19T20:41:23.677Z,11.25
2023-03-19T20:43:56.383Z,10.35
2023-03-19T20:46:28.780Z,10.15
2023-03-19T20:49:02.723Z,9.65
2023-03-19T20:51:35.875Z,9.50
2023-03-19T20:54:08.209Z,9.75
2023-03-19T20:56:41.921Z,9.65
2023-03-19T20:59:14.064Z,9.93
2023-03-19T21:01:46.165Z,11.18
2023-03-19T21:04:20.448Z,11.15
2023-03-19T21:06:54.135Z,12.40
2023-03-19T21:09:26.489Z,11.68
2023-03-19T21:11:58.623Z,11.13
2023-03-19T21:14:31.450Z,11.23
2023-03-19T21:17:03.749Z,11.27
2023-03-19T21:19:37.331Z,11.07
2023-03-19T21:22:22.836Z,11.35
2023-03-19T21:25:20.797Z,8.73
2023-03-19T21:27:55.948Z,9.02
2023-03-19T21:30:28.466Z,8.55
2023-03-19T21:33:01.565Z,9.98
2023-03-19T21:35:34.171Z,9.32
2023-03-19T21:38:06.303Z,8.45
2023-03-19T21:40:38.432Z,7.60
2023-03-19T21:43:21.817Z,8.63
2023-03-19T21:45:54.882Z,10.25
2023-03-19T21:48:35.306Z,10.75
2023-03-19T21:51:07.901Z,9.02
2023-03-19T21:53:40.340Z,9.30
2023-03-19T21:56:37.660Z,10.10
2023-03-19T21:59:22.829Z,12.13
2023-03-19T22:01:55.255Z,10.82
2023-03-19T22:04:27.669Z,9.00
2023-03-19T22:06:59.793Z,9.95
2023-03-19T22:09:32.172Z,9.95
2023-03-19T22:12:04.479Z,8.27
2023-03-19T22:14:36.916Z,7.97
2023-03-19T22:17:09.582Z,7.97
2023-03-19T22:19:42.093Z,8.90
2023-03-19T22:22:14.091Z,11.57
2023-03-19T22:24:46.156Z,12.82
2023-03-19T22:27:18.391Z,13.15
2023-03-19T22:29:50.940Z,13.57
2023-03-19T22:32:23.344Z,12.85
2023-03-19T22:34:55.788Z,12.07
2023-03-19T22:37:29.993Z,11.68
2023-03-19T22:40:02.009Z,11.68
2023-03-19T22:42:34.023Z,16.02
2023-03-19T22:45:08.012Z,12.13
2023-03-19T22:47:40.103Z,13.05
2023-03-19T22:50:24.976Z,13.65
2023-03-19T22:52:57.973Z,13.63
2023-03-19T22:55:29.945Z,19.15
2023-03-19T22:58:01.968Z,19.35
2023-03-19T23:00:34.357Z,17.40
2023-03-19T23:03:12.883Z,17.42
2023-03-19T23:05:48.054Z,14.53
2023-03-19T23:08:20.987Z,12.52
2023-03-19T23:10:53.692Z,12.27
2023-03-19T23:13:26.258Z,12.67
2023-03-19T23:16:00.746Z,11.85
2023-03-19T23:18:34.954Z,12.27
2023-03-19T23:21:09.706Z,15.07
2023-03-19T23:23:43.237Z,14.43
2023-03-19T23:26:31.253Z,12.48
2023-03-19T23:29:06.010Z,12.65
2023-03-19T23:31:38.522Z,14.00
2023-03-19T23:34:12.025Z,10.85
2023-03-19T23:36:44.626Z,10.13
2023-03-19T23:39:16.643Z,11.55
2023-03-19T23:41:53.056Z,10.55
2023-03-19T23:44:27.223Z,14.18
2023-03-19T23:47:02.437Z,12.23
2023-03-19T23:49:34.398Z,12.65
2023-03-19T23:52:06.587Z,9.98
2023-03-19T23:54:38.857Z,12.52
2023-03-19T23:57:15.791Z,11.00
2023-03-19T23:59:51.457Z,13.77
